Time;durP1;ratioP1;P1;durP2;ratioP2;P2;SDS_P1;SDS_P2;PMS_P1;PMS_P2;Temp;Humidity;BMP_temperature;BMP_pressure;BME280_temperature;BME280_humidity;BME280_pressure;Samples;Min_cycle;Max_cycle;Signal;HPM_P1;HPM_P2
2022/10/16 00:00:44;;;;;;;5.77;2.43;;;21.80;68.70;;;;;;5046700;28;20450;-49
2022/10/16 00:03:10;;;;;;;4.90;2.30;;;21.80;68.50;;;;;;5054350;28;20420;-50
2022/10/16 00:05:41;;;;;;;4.93;2.30;;;21.80;68.50;;;;;;5046285;28;20473;-46
2022/10/16 00:08:09;;;;;;;4.43;2.43;;;21.80;68.30;;;;;;5046083;28;20443;-47
2022/10/16 00:10:35;;;;;;;6.03;2.43;;;21.80;68.40;;;;;;5046828;28;20478;-47
2022/10/16 00:13:00;;;;;;;2.33;2.13;;;21.80;68.50;;;;;;5046434;28;20451;-49
2022/10/16 00:15:26;;;;;;;4.30;2.17;;;21.80;68.40;;;;;;5041536;28;20466;-47
2022/10/16 00:17:52;;;;;;;5.00;1.90;;;21.80;67.90;;;;;;5045891;28;20201;-46
2022/10/16 00:20:17;;;;;;;3.67;2.30;;;21.80;68.00;;;;;;5048142;28;20341;-47
2022/10/16 00:22:43;;;;;;;3.93;2.37;;;21.80;68.00;;;;;;5039049;28;20220;-50
2022/10/16 00:25:09;;;;;;;2.80;1.80;;;21.80;67.80;;;;;;5040406;28;20279;-49
2022/10/16 00:27:34;;;;;;;3.53;1.63;;;21.80;67.90;;;;;;5040894;28;20294;-47
2022/10/16 00:30:00;;;;;;;6.13;1.90;;;21.70;68.00;;;;;;5042706;28;20195;-46
2022/10/16 00:32:26;;;;;;;2.10;2.00;;;21.70;68.20;;;;;;5036661;28;20596;-46
2022/10/16 00:34:54;;;;;;;5.00;1.67;;;21.70;68.20;;;;;;5045185;28;20185;-46
2022/10/16 00:37:19;;;;;;;6.53;1.93;;;21.60;67.60;;;;;;5040279;28;20197;-46
2022/10/16 00:39:45;;;;;;;3.53;2.73;;;21.50;68.20;;;;;;5048379;28;20447;-46
2022/10/16 00:42:16;;;;;;;2.27;2.07;;;21.40;69.10;;;;;;5052124;28;20267;-47
2022/10/16 00:44:46;;;;;;;3.30;2.30;;;21.40;69.30;;;;;;5054269;28;20190;-46
2022/10/16 00:47:18;;;;;;;4.03;1.90;;;21.50;69.70;;;;;;5050393;28;20435;-48
2022/10/16 00:49:44;;;;;;;3.73;2.10;;;21.40;69.00;;;;;;5043444;28;20463;-46
2022/10/16 00:52:10;;;;;;;2.30;1.80;;;21.50;69.30;;;;;;5039834;28;20522;-47
2022/10/16 00:54:36;;;;;;;3.33;2.57;;;21.50;68.80;;;;;;5041167;28;20219;-51
2022/10/16 00:57:04;;;;;;;8.50;2.67;;;21.60;68.50;;;;;;5039542;28;20779;-47
2022/10/16 00:59:32;;;;;;;5.57;2.10;;;21.60;68.30;;;;;;5039891;28;20192;-48
2022/10/16 01:01:58;;;;;;;6.13;2.10;;;21.60;68.20;;;;;;5043067;28;20446;-46
2022/10/16 01:04:25;;;;;;;2.10;1.73;;;21.60;68.10;;;;;;5044041;28;20431;-46
2022/10/16 01:07:24;;;;;;;4.50;2.23;;;21.60;68.10;;;;;;5047858;28;20919;-51
2022/10/16 01:10:14;;;;;;;2.70;1.97;;;21.60;68.20;;;;;;5009103;28;20447;-46
2022/10/16 01:13:01;;;;;;;1.90;1.80;;;21.60;68.20;;;;;;5041983;28;20497;-46
2022/10/16 01:15:29;;;;;;;2.43;2.23;;;21.50;68.50;;;;;;5038645;28;20457;-47
2022/10/16 01:18:03;;;;;;;2.80;2.60;;;21.40;68.60;;;;;;5038072;28;20525;-47
2022/10/16 01:20:34;;;;;;;3.63;2.80;;;21.50;68.60;;;;;;5037925;28;21752;-46
2022/10/16 01:23:10;;;;;;;2.63;2.40;;;21.50;68.40;;;;;;5041075;28;20474;-46
2022/10/16 01:26:03;;;;;;;4.20;2.50;;;21.60;68.60;;;;;;5039911;28;21264;-46
2022/10/16 01:28:52;;;;;;;6.53;2.60;;;21.60;68.80;;;;;;5039633;28;20447;-48
2022/10/16 01:31:22;;;;;;;3.07;2.53;;;21.40;69.10;;;;;;5038703;28;20479;-46
2022/10/16 01:33:55;;;;;;;4.40;2.97;;;21.50;69.50;;;;;;5040773;28;20500;-50
2022/10/16 01:36:28;;;;;;;3.80;2.40;;;21.50;69.10;;;;;;5038513;28;20451;-47
2022/10/16 01:38:59;;;;;;;3.67;2.27;;;21.60;69.00;;;;;;5039155;28;20465;-48
2022/10/16 01:41:32;;;;;;;7.80;2.50;;;21.60;69.20;;;;;;5038916;28;20442;-48
2022/10/16 01:44:18;;;;;;;2.50;1.83;;;21.60;69.00;;;;;;5045488;28;20620;-46
2022/10/16 01:46:48;;;;;;;3.60;2.50;;;21.60;69.00;;;;;;5048975;28;20435;-48
2022/10/16 01:49:14;;;;;;;3.23;2.23;;;21.50;69.20;;;;;;5051812;28;20911;-46
2022/10/16 01:51:43;;;;;;;5.40;2.50;;;21.50;69.60;;;;;;5051465;28;20509;-46
2022/10/16 01:54:11;;;;;;;3.20;2.23;;;21.40;69.90;;;;;;5051084;28;20428;-48
2022/10/16 01:56:38;;;;;;;3.40;2.40;;;21.30;70.30;;;;;;5050369;28;20896;-49
2022/10/16 01:59:12;;;;;;;2.23;2.03;;;21.20;70.50;;;;;;5051601;28;20419;-47
2022/10/16 02:01:42;;;;;;;3.93;2.00;;;21.20;70.60;;;;;;5046964;28;20790;-48
2022/10/16 02:04:17;;;;;;;3.07;2.27;;;21.30;70.40;;;;;;5038335;28;20443;-47
2022/10/16 02:06:43;;;;;;;3.80;2.07;;;21.20;70.40;;;;;;5050205;28;21065;-46
2022/10/16 02:09:08;;;;;;;5.63;2.40;;;21.20;70.80;;;;;;5051554;28;20423;-46
2022/10/16 02:11:34;;;;;;;2.70;2.50;;;21.20;70.90;;;;;;5049935;28;20231;-47
2022/10/16 02:14:07;;;;;;;3.93;2.13;;;21.20;70.40;;;;;;5052103;28;20196;-46
2022/10/16 02:16:42;;;;;;;7.30;1.90;;;21.20;70.00;;;;;;5049908;28;20551;-47
2022/10/16 02:19:08;;;;;;;7.30;2.17;;;21.10;70.10;;;;;;5049884;28;20462;-46
2022/10/16 02:21:45;;;;;;;1.80;1.70;;;20.90;71.30;;;;;;5046811;28;21320;-46
2022/10/16 02:24:44;;;;;;;3.90;2.30;;;21.00;71.40;;;;;;5049544;28;20451;-49
2022/10/16 02:27:21;;;;;;;2.27;2.00;;;21.00;71.50;;;;;;5043011;28;20462;-48
2022/10/16 02:29:53;;;;;;;4.57;2.17;;;20.90;71.80;;;;;;5053384;28;20429;-47
2022/10/16 02:32:24;;;;;;;3.93;2.10;;;21.00;71.40;;;;;;5046451;28;20574;-45
2022/10/16 02:34:51;;;;;;;6.90;2.33;;;20.80;72.50;;;;;;5048393;28;20500;-46
2022/10/16 02:37:18;;;;;;;5.30;2.23;;;20.80;72.40;;;;;;5049125;28;20447;-46
2022/10/16 02:39:44;;;;;;;2.13;2.03;;;20.80;72.30;;;;;;5049383;28;20470;-47
2022/10/16 02:42:13;;;;;;;3.70;2.20;;;21.00;72.10;;;;;;5048846;28;20454;-46
2022/10/16 02:44:40;;;;;;;3.77;2.20;;;20.90;72.20;;;;;;5049699;28;20181;-45
2022/10/16 02:47:05;;;;;;;11.87;2.03;;;20.90;72.40;;;;;;5050405;28;20420;-48
2022/10/16 02:49:31;;;;;;;5.43;3.37;;;20.70;72.80;;;;;;5050901;28;20430;-46
2022/10/16 02:51:57;;;;;;;2.40;2.00;;;20.70;73.60;;;;;;5050216;28;20683;-46
2022/10/16 02:54:23;;;;;;;3.90;2.80;;;20.70;73.30;;;;;;5050808;28;20193;-46
2022/10/16 02:56:49;;;;;;;2.90;2.27;;;20.80;72.90;;;;;;5049769;28;20203;-48
2022/10/16 02:59:15;;;;;;;2.00;1.80;;;20.70;73.00;;;;;;5050557;28;20427;-46
2022/10/16 03:01:40;;;;;;;3.43;2.50;;;20.80;72.80;;;;;;5049477;28;20325;-48
2022/10/16 03:04:06;;;;;;;5.47;1.93;;;20.80;72.50;;;;;;5050760;28;20215;-46
2022/10/16 03:06:32;;;;;;;4.70;2.17;;;20.70;73.20;;;;;;5049738;28;20513;-49
2022/10/16 03:08:57;;;;;;;3.70;2.10;;;20.70;72.90;;;;;;5049265;28;20188;-47
2022/10/16 03:11:23;;;;;;;4.60;2.13;;;20.80;72.60;;;;;;5049833;28;20234;-47
2022/10/16 03:13:48;;;;;;;2.30;1.67;;;20.80;72.90;;;;;;5055788;28;20203;-47
2022/10/16 03:16:14;;;;;;;1.80;1.70;;;20.70;73.00;;;;;;5056901;28;20201;-48
2022/10/16 03:18:40;;;;;;;3.00;2.00;;;20.50;73.60;;;;;;5049818;28;20275;-46
2022/10/16 03:21:05;;;;;;;2.63;1.87;;;20.50;74.50;;;;;;5049368;28;20199;-46
2022/10/16 03:23:31;;;;;;;4.00;2.07;;;20.70;73.90;;;;;;5035779;28;20208;-46
2022/10/16 03:25:56;;;;;;;3.40;2.27;;;20.80;73.00;;;;;;5048352;28;20200;-49
2022/10/16 03:28:22;;;;;;;5.50;1.87;;;20.90;72.50;;;;;;5041316;28;20649;-46
2022/10/16 03:30:47;;;;;;;2.13;1.80;;;21.00;72.20;;;;;;5035842;28;20217;-46
2022/10/16 03:33:13;;;;;;;2.57;1.90;;;21.00;71.70;;;;;;5035219;28;20197;-47
2022/10/16 03:35:39;;;;;;;4.83;2.17;;;21.00;71.40;;;;;;5038245;28;20197;-47
2022/10/16 03:38:04;;;;;;;3.10;2.20;;;21.00;71.00;;;;;;5032870;28;20201;-46
2022/10/16 03:40:32;;;;;;;4.30;1.50;;;21.00;71.10;;;;;;5036659;28;20196;-46
2022/10/16 03:42:57;;;;;;;3.20;2.37;;;21.00;71.00;;;;;;5037163;28;20546;-50
2022/10/16 03:45:24;;;;;;;2.60;2.40;;;21.00;71.30;;;;;;5036379;28;20450;-48
2022/10/16 03:47:49;;;;;;;2.30;1.97;;;20.90;70.80;;;;;;5046293;28;20193;-46
2022/10/16 03:50:15;;;;;;;2.20;2.03;;;20.90;71.10;;;;;;5043839;28;20449;-47
2022/10/16 03:52:41;;;;;;;7.70;2.40;;;20.80;71.50;;;;;;5041709;28;20229;-46
2022/10/16 03:55:07;;;;;;;2.60;2.07;;;20.70;71.90;;;;;;5045579;28;20220;-47
2022/10/16 03:57:33;;;;;;;2.70;1.90;;;20.80;71.80;;;;;;5042586;28;20193;-50
2022/10/16 03:59:58;;;;;;;2.50;2.00;;;20.80;71.70;;;;;;5049948;28;20450;-51
2022/10/16 04:02:24;;;;;;;5.57;2.53;;;20.80;71.70;;;;;;5039579;28;20193;-49
2022/10/16 04:04:49;;;;;;;6.33;2.33;;;20.60;72.70;;;;;;5047555;28;20207;-51
2022/10/16 04:07:15;;;;;;;2.07;1.87;;;20.70;72.70;;;;;;5041561;28;20212;-46
2022/10/16 04:09:41;;;;;;;4.53;2.03;;;20.70;72.40;;;;;;5041507;28;20196;-46
2022/10/16 04:12:07;;;;;;;2.40;2.13;;;20.70;72.40;;;;;;5036692;28;20227;-46
2022/10/16 04:14:32;;;;;;;2.20;2.00;;;20.70;72.50;;;;;;5041926;28;20798;-47
2022/10/16 04:16:58;;;;;;;3.60;2.13;;;20.80;72.30;;;;;;5044230;28;20215;-45
2022/10/16 04:19:24;;;;;;;3.33;2.17;;;20.80;71.90;;;;;;5042457;28;20306;-49
2022/10/16 04:21:50;;;;;;;2.37;2.00;;;20.80;71.50;;;;;;5041793;28;20189;-49
2022/10/16 04:24:15;;;;;;;2.63;1.70;;;20.90;71.50;;;;;;5047538;28;20228;-46
2022/10/16 04:26:41;;;;;;;4.00;3.00;;;20.90;71.30;;;;;;5038393;28;20195;-47
2022/10/16 04:29:06;;;;;;;6.33;2.00;;;20.80;71.30;;;;;;5039904;28;20275;-48
2022/10/16 04:31:33;;;;;;;1.80;1.70;;;20.90;71.20;;;;;;5045427;28;21216;-46
2022/10/16 04:33:58;;;;;;;2.70;1.70;;;20.90;71.10;;;;;;5036776;28;20200;-49
2022/10/16 04:36:24;;;;;;;3.70;1.90;;;20.90;71.00;;;;;;5037272;28;20442;-46
2022/10/16 04:38:49;;;;;;;2.10;2.00;;;20.80;71.30;;;;;;5038785;28;20208;-49
2022/10/16 04:41:15;;;;;;;3.77;2.70;;;20.70;71.70;;;;;;5041145;28;20193;-48
2022/10/16 04:43:40;;;;;;;2.40;2.17;;;20.60;72.00;;;;;;5043099;28;20200;-46
2022/10/16 04:46:06;;;;;;;2.53;2.20;;;20.60;72.00;;;;;;5039976;28;20210;-47
2022/10/16 04:48:32;;;;;;;2.07;1.90;;;20.60;71.60;;;;;;5040962;28;20184;-46
2022/10/16 04:50:58;;;;;;;2.17;1.97;;;20.60;72.00;;;;;;5046546;28;20594;-46
2022/10/16 04:53:24;;;;;;;2.87;2.20;;;20.70;71.80;;;;;;5052062;28;20481;-47
2022/10/16 04:55:50;;;;;;;2.50;2.30;;;20.70;71.50;;;;;;5052363;28;20810;-45
2022/10/16 04:58:16;;;;;;;4.40;1.83;;;20.70;71.60;;;;;;5052090;28;20231;-47
2022/10/16 05:00:42;;;;;;;4.93;2.10;;;20.60;72.20;;;;;;5050232;28;20887;-49
2022/10/16 05:03:08;;;;;;;7.17;2.07;;;20.40;73.10;;;;;;5051097;28;20204;-46
2022/10/16 05:05:35;;;;;;;7.00;2.27;;;20.20;73.60;;;;;;5052006;28;20288;-47
2022/10/16 05:08:00;;;;;;;4.47;2.80;;;20.20;74.60;;;;;;5049708;28;20449;-46
2022/10/16 05:10:26;;;;;;;2.60;2.07;;;20.40;73.90;;;;;;5041253;28;20523;-46
2022/10/16 05:12:52;;;;;;;3.10;1.80;;;20.60;73.20;;;;;;5040237;28;20613;-48
2022/10/16 05:15:18;;;;;;;3.57;2.30;;;20.70;72.60;;;;;;5041432;28;20204;-46
2022/10/16 05:17:44;;;;;;;3.67;2.40;;;20.60;72.30;;;;;;5041129;28;20888;-46
2022/10/16 05:20:09;;;;;;;2.63;2.43;;;20.70;72.30;;;;;;5038939;28;20477;-46
2022/10/16 05:22:35;;;;;;;5.43;2.10;;;20.80;71.70;;;;;;5039285;28;20491;-46
2022/10/16 05:25:01;;;;;;;1.80;1.70;;;20.80;71.70;;;;;;5039414;28;20677;-48
2022/10/16 05:27:26;;;;;;;2.00;1.73;;;20.80;71.30;;;;;;5042571;28;20199;-46
2022/10/16 05:29:52;;;;;;;4.63;1.70;;;20.80;71.10;;;;;;5036346;28;20699;-48
2022/10/16 05:32:18;;;;;;;3.70;1.43;;;20.80;71.30;;;;;;5039143;28;20255;-45
2022/10/16 05:34:44;;;;;;;2.13;1.70;;;20.70;71.60;;;;;;5040014;28;20908;-46
2022/10/16 05:37:11;;;;;;;2.23;1.70;;;20.80;71.90;;;;;;5041247;28;20829;-46
2022/10/16 05:39:37;;;;;;;2.67;1.80;;;20.50;72.40;;;;;;5038906;28;20454;-49
2022/10/16 05:42:03;;;;;;;1.80;1.70;;;20.30;73.70;;;;;;5038651;28;20443;-46
2022/10/16 05:44:29;;;;;;;3.50;1.90;;;20.30;73.50;;;;;;5038736;28;20242;-46
2022/10/16 05:46:54;;;;;;;1.97;1.60;;;20.30;73.50;;;;;;5046507;28;20432;-46
2022/10/16 05:49:20;;;;;;;5.13;1.90;;;20.30;73.10;;;;;;5041587;28;20189;-49
2022/10/16 05:51:46;;;;;;;2.37;1.97;;;20.40;72.80;;;;;;5037800;28;20236;-49
2022/10/16 05:54:11;;;;;;;5.70;1.77;;;20.50;72.30;;;;;;5037341;28;20268;-48
2022/10/16 05:56:37;;;;;;;1.90;1.80;;;20.50;72.10;;;;;;5035630;28;20643;-49
2022/10/16 05:59:04;;;;;;;1.70;1.60;;;20.60;71.70;;;;;;5039039;28;20228;-46
2022/10/16 06:01:30;;;;;;;2.90;2.10;;;20.60;71.60;;;;;;5040242;28;20201;-48
2022/10/16 06:03:57;;;;;;;1.83;1.73;;;20.50;72.00;;;;;;5039894;28;20450;-46
2022/10/16 06:06:26;;;;;;;4.13;1.97;;;20.40;71.90;;;;;;5039164;28;20554;-47
2022/10/16 06:08:52;;;;;;;2.47;1.90;;;20.50;72.30;;;;;;5045850;28;20440;-46
2022/10/16 06:11:21;;;;;;;5.17;2.17;;;20.50;72.20;;;;;;5046567;28;20487;-49
2022/10/16 06:13:51;;;;;;;2.43;1.60;;;20.60;71.90;;;;;;5052149;28;20446;-48
2022/10/16 06:16:16;;;;;;;3.10;1.57;;;20.60;71.80;;;;;;5052949;28;20439;-46
2022/10/16 06:18:42;;;;;;;2.47;1.87;;;20.70;71.70;;;;;;5051077;28;20552;-47
2022/10/16 06:21:11;;;;;;;1.80;1.70;;;20.60;71.70;;;;;;5050070;28;20604;-47
2022/10/16 06:23:36;;;;;;;2.00;1.70;;;20.60;72.00;;;;;;5051377;28;20203;-46
2022/10/16 06:26:11;;;;;;;2.20;1.80;;;20.40;72.30;;;;;;5047149;28;20439;-47
2022/10/16 06:28:37;;;;;;;3.43;1.70;;;20.40;72.90;;;;;;5046736;28;20200;-46
2022/10/16 06:31:04;;;;;;;1.90;1.70;;;20.50;72.80;;;;;;5058618;28;20487;-46
2022/10/16 06:33:30;;;;;;;1.97;1.60;;;20.50;72.70;;;;;;5048568;28;20473;-47
2022/10/16 06:36:07;;;;;;;3.20;2.03;;;20.50;72.50;;;;;;5047111;28;20439;-46
2022/10/16 06:38:32;;;;;;;2.23;1.80;;;20.30;73.40;;;;;;5036410;28;20958;-47
2022/10/16 06:40:58;;;;;;;6.50;2.00;;;20.40;73.40;;;;;;5050955;28;20427;-46
2022/10/16 06:43:24;;;;;;;2.50;1.97;;;20.40;73.40;;;;;;5050553;28;20200;-46
2022/10/16 06:45:53;;;;;;;6.43;1.77;;;20.50;73.30;;;;;;5050365;28;20578;-46
2022/10/16 06:48:19;;;;;;;3.53;1.70;;;20.40;73.60;;;;;;5050564;28;20846;-46
2022/10/16 06:50:54;;;;;;;2.00;1.73;;;20.50;73.50;;;;;;5049826;28;20447;-46
2022/10/16 06:53:20;;;;;;;3.30;2.00;;;20.50;73.30;;;;;;5049057;28;20423;-47
2022/10/16 06:55:45;;;;;;;2.30;1.97;;;20.40;73.70;;;;;;5050574;28;20435;-46
2022/10/16 06:58:11;;;;;;;4.60;1.90;;;20.40;73.90;;;;;;5050284;28;20203;-47
2022/10/16 07:00:36;;;;;;;2.20;1.60;;;20.40;73.90;;;;;;5047879;28;20249;-47
2022/10/16 07:03:02;;;;;;;1.70;1.60;;;20.50;73.20;;;;;;5050561;28;20267;-46
2022/10/16 07:05:28;;;;;;;9.03;2.00;;;20.10;75.10;;;;;;5049198;28;20238;-46
2022/10/16 07:07:53;;;;;;;2.53;2.00;;;19.90;76.40;;;;;;5049103;28;20542;-46
2022/10/16 07:10:19;;;;;;;6.20;1.83;;;19.90;76.90;;;;;;5036172;28;20542;-46
2022/10/16 07:12:44;;;;;;;3.20;1.77;;;19.90;76.50;;;;;;5049237;28;20232;-45
2022/10/16 07:15:10;;;;;;;2.10;1.90;;;20.10;76.40;;;;;;5054892;28;20254;-47
2022/10/16 07:17:36;;;;;;;3.00;1.87;;;20.10;75.80;;;;;;5048742;28;20184;-47
2022/10/16 07:20:02;;;;;;;2.00;1.50;;;20.20;75.60;;;;;;5048517;28;20228;-51
2022/10/16 07:22:28;;;;;;;2.30;2.10;;;20.20;75.40;;;;;;5047541;28;20216;-47
2022/10/16 07:24:54;;;;;;;2.60;1.90;;;20.40;75.20;;;;;;5042008;28;20445;-46
2022/10/16 07:27:22;;;;;;;6.33;2.17;;;20.40;74.50;;;;;;5051354;28;20447;-47
2022/10/16 07:29:47;;;;;;;2.10;1.90;;;20.50;74.20;;;;;;5052472;28;20273;-46
2022/10/16 07:32:13;;;;;;;2.93;1.70;;;20.50;74.40;;;;;;5050236;28;20724;-48
2022/10/16 07:34:39;;;;;;;2.53;2.03;;;20.60;74.20;;;;;;5052761;28;20189;-46
2022/10/16 07:37:04;;;;;;;2.30;1.70;;;20.70;73.70;;;;;;5048451;28;20201;-46
2022/10/16 07:39:30;;;;;;;3.00;1.60;;;20.80;73.20;;;;;;5051321;28;20482;-47
2022/10/16 07:41:56;;;;;;;1.93;1.70;;;20.90;73.10;;;;;;5050453;28;20192;-46
2022/10/16 07:44:21;;;;;;;4.03;1.77;;;21.00;72.60;;;;;;5051445;28;20695;-50
2022/10/16 07:46:47;;;;;;;6.57;1.90;;;21.10;72.10;;;;;;5048314;28;20235;-46
2022/10/16 07:49:12;;;;;;;3.20;1.80;;;21.10;72.00;;;;;;5050943;28;20200;-46
2022/10/16 07:51:39;;;;;;;1.80;1.60;;;21.10;71.90;;;;;;5064094;28;20237;-47
2022/10/16 07:54:04;;;;;;;7.23;2.00;;;21.20;71.80;;;;;;5042115;28;20193;-47
2022/10/16 07:56:32;;;;;;;1.63;1.53;;;21.10;72.20;;;;;;5047096;28;20428;-47
2022/10/16 07:58:58;;;;;;;3.80;1.83;;;21.10;72.10;;;;;;5051243;28;20197;-47
2022/10/16 08:01:23;;;;;;;2.30;1.53;;;21.10;72.20;;;;;;5053342;28;20930;-49
2022/10/16 08:03:50;;;;;;;1.73;1.63;;;21.00;73.20;;;;;;5054221;28;20197;-46
2022/10/16 08:06:17;;;;;;;5.00;1.90;;;21.00;73.10;;;;;;5053030;28;20254;-48
2022/10/16 08:08:43;;;;;;;3.27;1.83;;;21.10;72.90;;;;;;5051550;28;20501;-46
2022/10/16 08:11:09;;;;;;;3.07;1.93;;;21.10;72.50;;;;;;5053351;28;20478;-48
2022/10/16 08:13:35;;;;;;;3.20;1.90;;;21.10;72.00;;;;;;5054941;28;20277;-46
2022/10/16 08:16:01;;;;;;;1.97;1.73;;;21.20;72.00;;;;;;5061395;28;20434;-46
2022/10/16 08:18:27;;;;;;;2.53;1.50;;;21.30;71.90;;;;;;5051563;28;20675;-47
2022/10/16 08:20:57;;;;;;;4.70;2.10;;;21.20;71.90;;;;;;5052678;28;20471;-48
2022/10/16 08:23:25;;;;;;;2.23;1.90;;;21.20;72.30;;;;;;5052660;28;20201;-47
2022/10/16 08:25:51;;;;;;;5.20;2.33;;;21.30;72.40;;;;;;5053499;28;20424;-47
2022/10/16 08:28:17;;;;;;;2.30;2.10;;;21.20;72.50;;;;;;5052671;28;20430;-48
2022/10/16 08:30:42;;;;;;;6.80;1.90;;;21.30;72.90;;;;;;5051339;28;20471;-47
2022/10/16 08:33:08;;;;;;;2.80;1.80;;;21.50;72.50;;;;;;5052797;28;20672;-47
2022/10/16 08:35:33;;;;;;;2.80;1.37;;;21.50;72.10;;;;;;5052984;28;20216;-46
2022/10/16 08:37:59;;;;;;;2.83;2.33;;;21.60;72.50;;;;;;5051749;28;20196;-47
2022/10/16 08:40:27;;;;;;;4.70;1.80;;;21.70;72.40;;;;;;5050737;28;20261;-46
2022/10/16 08:43:02;;;;;;;1.83;1.73;;;21.70;72.00;;;;;;5049916;28;20216;-47
2022/10/16 08:45:34;;;;;;;2.20;1.80;;;21.70;72.20;;;;;;5049553;28;20493;-48
2022/10/16 08:48:16;;;;;;;2.10;1.90;;;21.80;72.00;;;;;;5052348;28;20423;-45
2022/10/16 08:50:41;;;;;;;5.30;1.70;;;22.00;71.40;;;;;;5049756;28;20474;-45
2022/10/16 08:53:15;;;;;;;1.87;1.60;;;22.10;70.30;;;;;;5060864;28;20508;-45
2022/10/16 08:55:49;;;;;;;3.03;1.77;;;22.00;70.30;;;;;;5046298;28;20192;-48
2022/10/16 08:58:17;;;;;;;6.23;1.70;;;22.00;70.80;;;;;;5053866;28;20811;-47
2022/10/16 09:00:47;;;;;;;2.60;1.53;;;21.70;71.60;;;;;;5042363;28;20447;-50
2022/10/16 09:03:22;;;;;;;1.87;1.77;;;21.40;73.10;;;;;;5060845;28;20508;-46
2022/10/16 09:06:08;;;;;;;3.93;1.70;;;21.50;72.80;;;;;;5041841;28;20463;-46
2022/10/16 09:08:46;;;;;;;14.40;4.60;;;21.50;72.80;;;;;;5046419;28;20853;-47
2022/10/16 09:11:41;;;;;;;9.07;3.47;;;21.70;72.30;;;;;;5049953;28;20482;-48
2022/10/16 09:14:44;;;;;;;7.93;4.57;;;21.80;71.20;;;;;;5045205;28;20455;-47
2022/10/16 09:17:35;;;;;;;7.97;4.23;;;22.00;71.10;;;;;;4975896;28;20491;-47
2022/10/16 09:20:28;;;;;;;3.00;2.70;;;21.80;71.20;;;;;;5048756;28;21040;-46
2022/10/16 09:23:14;;;;;;;5.10;3.73;;;21.90;71.50;;;;;;5051445;28;20439;-47
2022/10/16 09:25:44;;;;;;;4.93;3.60;;;21.90;70.90;;;;;;5050644;28;20431;-46
2022/10/16 09:28:10;;;;;;;4.30;3.10;;;21.80;70.40;;;;;;5049504;28;20435;-47
2022/10/16 09:30:37;;;;;;;2.07;1.87;;;21.80;71.60;;;;;;5052270;28;21009;-47
2022/10/16 09:33:04;;;;;;;3.10;2.20;;;21.80;70.00;;;;;;5049505;28;20224;-47
2022/10/16 09:35:37;;;;;;;2.10;1.77;;;22.00;69.40;;;;;;5047747;28;20443;-54
2022/10/16 09:38:03;;;;;;;4.03;1.30;;;22.20;69.00;;;;;;5037715;28;20621;-48
2022/10/16 09:40:41;;;;;;;2.63;1.87;;;22.40;67.10;;;;;;5051136;28;20560;-47
2022/10/16 09:43:25;;;;;;;2.17;1.63;;;22.70;67.10;;;;;;5039331;28;20202;-47
2022/10/16 09:45:59;;;;;;;2.37;1.70;;;23.00;64.60;;;;;;5050221;28;20507;-48
2022/10/16 09:48:31;;;;;;;4.23;1.67;;;23.10;64.60;;;;;;5049475;28;20474;-47
2022/10/16 09:51:00;;;;;;;2.40;1.90;;;23.20;63.30;;;;;;5049199;28;20442;-49
2022/10/16 09:53:40;;;;;;;1.90;1.70;;;23.30;61.30;;;;;;5048685;28;20446;-47
2022/10/16 09:56:06;;;;;;;1.97;1.83;;;23.30;61.40;;;;;;5048484;28;20451;-47
2022/10/16 09:58:33;;;;;;;3.57;1.50;;;23.50;59.60;;;;;;5051505;28;20514;-47
2022/10/16 10:00:59;;;;;;;17.63;3.37;;;23.40;60.00;;;;;;5046912;28;20447;-48
2022/10/16 10:03:38;;;;;;;2.40;1.17;;;23.40;59.50;;;;;;5046552;28;20978;-51
2022/10/16 10:06:22;;;;;;;2.63;1.60;;;23.60;59.50;;;;;;5047183;28;20450;-48
2022/10/16 10:09:03;;;;;;;1.40;1.30;;;23.90;58.80;;;;;;5043972;28;20953;-47
2022/10/16 10:11:47;;;;;;;1.30;1.20;;;24.20;57.80;;;;;;5045841;28;20473;-47
2022/10/16 10:14:24;;;;;;;3.50;2.47;;;24.50;56.80;;;;;;5048619;28;21010;-47
2022/10/16 10:16:52;;;;;;;1.50;1.40;;;24.70;56.40;;;;;;5039742;28;20897;-47
2022/10/16 10:19:21;;;;;;;3.27;2.37;;;24.90;56.00;;;;;;5047928;28;20474;-47
2022/10/16 10:21:47;;;;;;;2.80;1.60;;;24.90;55.30;;;;;;5047269;28;20481;-47
2022/10/16 10:24:17;;;;;;;1.83;1.53;;;25.00;55.80;;;;;;5048697;28;20979;-50
2022/10/16 10:27:19;;;;;;;7.70;1.87;;;25.30;55.60;;;;;;5048609;28;20884;-47
2022/10/16 10:30:33;;;;;;;3.27;1.97;;;25.50;54.00;;;;;;4969371;28;20458;-47
2022/10/16 10:33:01;;;;;;;2.60;2.40;;;25.70;53.30;;;;;;5021167;28;20510;-48
2022/10/16 10:35:42;;;;;;;1.37;1.27;;;25.90;53.60;;;;;;5050964;28;20585;-47
2022/10/16 10:38:26;;;;;;;1.93;1.80;;;26.10;53.00;;;;;;5046131;28;20439;-44
2022/10/16 10:41:36;;;;;;;4.23;1.77;;;26.20;52.80;;;;;;5048304;28;20534;-45
2022/10/16 10:44:27;;;;;;;3.70;2.00;;;26.20;53.00;;;;;;5037871;28;20458;-45
2022/10/16 10:47:11;;;;;;;5.13;2.00;;;26.40;52.80;;;;;;5040033;28;21303;-47
2022/10/16 10:49:48;;;;;;;2.47;1.60;;;26.50;52.50;;;;;;5047389;28;20442;-48
2022/10/16 10:52:33;;;;;;;1.50;1.40;;;26.50;52.40;;;;;;5049071;28;20535;-49
2022/10/16 10:55:30;;;;;;;1.73;1.50;;;26.60;52.10;;;;;;5045612;28;20496;-45
2022/10/16 10:58:05;;;;;;;3.90;2.00;;;26.70;52.40;;;;;;5044976;28;20455;-45
2022/10/16 11:01:15;;;;;;;7.97;2.03;;;26.70;51.30;;;;;;5042873;28;20456;-44
2022/10/16 11:04:03;;;;;;;6.33;2.33;;;27.00;52.20;;;;;;5047935;28;20516;-45
2022/10/16 11:06:44;;;;;;;5.87;3.53;;;27.30;51.80;;;;;;5044534;28;21129;-47
2022/10/16 11:09:25;;;;;;;8.87;4.10;;;27.40;50.60;;;;;;5049916;28;20454;-47
2022/10/16 11:12:00;;;;;;;7.70;2.67;;;27.80;50.50;;;;;;5052591;28;20536;-46
2022/10/16 11:15:02;;;;;;;4.13;2.37;;;28.10;49.40;;;;;;5056650;28;20537;-47
2022/10/16 11:17:30;;;;;;;6.63;2.27;;;28.30;48.60;;;;;;5048485;28;20445;-47
2022/10/16 11:20:03;;;;;;;11.07;2.97;;;28.30;49.00;;;;;;5050139;28;20539;-46
2022/10/16 11:22:34;;;;;;;4.70;2.60;;;28.50;48.20;;;;;;5048842;28;20438;-47
2022/10/16 11:25:02;;;;;;;4.93;3.13;;;28.60;48.30;;;;;;5051406;28;20447;-46
2022/10/16 11:27:57;;;;;;;3.90;2.10;;;28.80;48.10;;;;;;5051259;28;20447;-47
2022/10/16 11:30:28;;;;;;;2.40;2.13;;;29.00;47.70;;;;;;5050819;28;20446;-50
2022/10/16 11:33:09;;;;;;;6.50;2.77;;;28.90;46.70;;;;;;5051209;28;20487;-47
2022/10/16 11:35:48;;;;;;;3.17;2.23;;;28.80;47.40;;;;;;5051231;28;20442;-46
2022/10/16 11:38:54;;;;;;;4.20;2.30;;;29.00;46.90;;;;;;5051270;28;20445;-51
2022/10/16 11:41:37;;;;;;;3.50;1.97;;;29.30;46.70;;;;;;5020536;28;20455;-47
2022/10/16 11:44:31;;;;;;;5.03;2.87;;;29.50;46.40;;;;;;5049901;28;20950;-47
2022/10/16 11:47:38;;;;;;;2.60;1.80;;;29.60;45.70;;;;;;5048227;28;20561;-51
2022/10/16 11:50:29;;;;;;;1.83;1.73;;;29.80;45.90;;;;;;5052660;28;20453;-47
2022/10/16 11:53:21;;;;;;;4.33;2.30;;;29.90;44.50;;;;;;5042722;28;20593;-47
2022/10/16 11:55:47;;;;;;;2.17;1.90;;;30.00;45.10;;;;;;5049785;28;21052;-46
2022/10/16 11:58:18;;;;;;;2.93;1.70;;;30.00;44.40;;;;;;5051615;28;20530;-48
2022/10/16 12:00:51;;;;;;;1.57;1.47;;;30.20;43.60;;;;;;5041830;28;20216;-47
2022/10/16 12:03:25;;;;;;;3.53;1.57;;;30.30;44.10;;;;;;5043789;28;20538;-46
2022/10/16 12:06:18;;;;;;;1.90;1.70;;;30.40;43.50;;;;;;5049214;28;20458;-47
2022/10/16 12:08:44;;;;;;;4.07;1.90;;;30.60;43.00;;;;;;5046111;28;20450;-48
2022/10/16 12:11:30;;;;;;;3.40;1.57;;;30.30;41.90;;;;;;5049515;28;20993;-45
2022/10/16 12:14:07;;;;;;;1.80;1.30;;;30.40;42.80;;;;;;5057006;28;21027;-45
2022/10/16 12:16:32;;;;;;;1.87;1.77;;;30.50;42.80;;;;;;5053032;28;20459;-45
2022/10/16 12:19:16;;;;;;;1.60;1.50;;;30.60;44.10;;;;;;5049784;28;20481;-45
2022/10/16 12:21:43;;;;;;;3.70;1.83;;;30.60;42.70;;;;;;5051312;28;20228;-51
2022/10/16 12:24:24;;;;;;;2.00;1.70;;;30.60;41.50;;;;;;5050223;28;20530;-46
2022/10/16 12:26:51;;;;;;;1.57;1.47;;;30.70;42.10;;;;;;5049937;28;20530;-47
2022/10/16 12:29:33;;;;;;;1.60;1.50;;;30.80;43.60;;;;;;5043601;28;20419;-47
2022/10/16 12:31:59;;;;;;;3.23;2.10;;;30.80;43.20;;;;;;5050534;28;20581;-46
2022/10/16 12:34:43;;;;;;;3.43;1.70;;;30.60;42.00;;;;;;5050509;28;20798;-51
2022/10/16 12:37:25;;;;;;;4.57;1.47;;;30.50;41.20;;;;;;5045771;28;20446;-46
2022/10/16 12:39:53;;;;;;;1.67;1.57;;;30.30;41.20;;;;;;5051349;28;20435;-49
2022/10/16 12:42:21;;;;;;;3.57;2.30;;;30.30;41.60;;;;;;5044353;28;20471;-46
2022/10/16 12:44:47;;;;;;;4.60;1.67;;;30.50;42.20;;;;;;5050862;28;20926;-46
2022/10/16 12:47:35;;;;;;;2.60;2.40;;;30.50;43.10;;;;;;5050232;28;20446;-47
2022/10/16 12:50:00;;;;;;;2.93;2.13;;;30.60;44.30;;;;;;5050861;28;20193;-49
2022/10/16 12:52:38;;;;;;;1.60;1.50;;;30.60;44.30;;;;;;5042691;28;20516;-46
2022/10/16 12:55:12;;;;;;;1.80;1.70;;;30.60;43.50;;;;;;5046321;28;20219;-45
2022/10/16 12:57:56;;;;;;;1.80;1.33;;;30.60;43.30;;;;;;5042695;28;20835;-49
2022/10/16 13:00:44;;;;;;;2.10;1.70;;;30.60;43.70;;;;;;5046585;28;20462;-53
2022/10/16 13:03:18;;;;;;;2.50;2.13;;;30.70;44.70;;;;;;5041063;28;20469;-48
2022/10/16 13:06:16;;;;;;;5.23;1.97;;;30.90;45.10;;;;;;5051480;28;20431;-48